createdAt,value
2022-11-20T00:00:15.157Z,8.63
2022-11-20T00:01:15.142Z,8.63
2022-11-20T00:02:15.275Z,8.52
2022-11-20T00:03:15.109Z,8.55
2022-11-20T00:04:15.097Z,8.54
2022-11-20T00:05:15.080Z,8.45
2022-11-20T00:06:15.068Z,8.39
2022-11-20T00:07:15.224Z,8.40
2022-11-20T00:08:15.043Z,8.46
2022-11-20T00:09:15.025Z,8.45
2022-11-20T00:10:15.009Z,8.43
2022-11-20T00:11:16.297Z,8.43
2022-11-20T00:12:14.980Z,8.40
2022-11-20T00:13:14.963Z,8.31
2022-11-20T00:14:14.951Z,8.32
2022-11-20T00:15:14.934Z,8.40
2022-11-20T00:16:14.922Z,8.42
2022-11-20T00:17:14.902Z,8.49
2022-11-20T00:18:14.895Z,8.50
2022-11-20T00:19:14.873Z,8.50
2022-11-20T00:20:14.861Z,8.50
2022-11-20T00:21:14.848Z,8.42
2022-11-20T00:22:14.833Z,8.45
2022-11-20T00:23:14.838Z,8.63
2022-11-20T00:24:14.803Z,8.49
2022-11-20T00:25:14.788Z,8.42
2022-11-20T00:26:14.780Z,8.45
2022-11-20T00:27:14.756Z,8.43
2022-11-20T00:28:14.745Z,8.55
2022-11-20T00:29:14.727Z,8.64
2022-11-20T00:30:15.152Z,8.58
2022-11-20T00:31:14.701Z,8.61
2022-11-20T00:32:14.686Z,8.60
2022-11-20T00:33:14.684Z,8.57
2022-11-20T00:34:14.656Z,8.52
2022-11-20T00:35:14.638Z,8.49
2022-11-20T00:36:14.630Z,8.45
2022-11-20T00:37:14.611Z,8.45
2022-11-20T00:38:14.602Z,8.49
2022-11-20T00:39:14.601Z,8.36
2022-11-20T00:40:14.574Z,8.32
2022-11-20T00:41:14.551Z,8.39
2022-11-20T00:42:14.539Z,8.25
2022-11-20T00:43:14.521Z,8.36
2022-11-20T00:44:14.509Z,8.22
2022-11-20T00:45:14.492Z,8.32
2022-11-20T00:46:14.480Z,8.27
2022-11-20T00:47:14.462Z,8.14
2022-11-20T00:48:14.653Z,8.27
2022-11-20T00:49:14.434Z,8.24
2022-11-20T00:50:14.421Z,8.29
2022-11-20T00:51:14.404Z,8.31
2022-11-20T00:52:14.392Z,8.36
2022-11-20T00:53:14.375Z,8.42
2022-11-20T00:54:14.379Z,8.36
2022-11-20T00:55:14.368Z,8.37
2022-11-20T00:56:14.333Z,8.34
2022-11-20T00:57:14.316Z,8.28
2022-11-20T00:58:14.608Z,8.28
2022-11-20T00:59:14.285Z,8.31
2022-11-20T01:00:14.275Z,8.46
2022-11-20T01:01:14.301Z,8.55
2022-11-20T01:02:14.245Z,8.57
2022-11-20T01:03:14.226Z,8.47
2022-11-20T01:04:14.215Z,8.52
2022-11-20T01:05:14.197Z,8.55
2022-11-20T01:06:14.186Z,8.52
2022-11-20T01:07:14.202Z,8.49
2022-11-20T01:08:14.160Z,8.55
2022-11-20T01:09:14.140Z,8.55
2022-11-20T01:10:14.136Z,8.49
2022-11-20T01:11:14.236Z,8.55
2022-11-20T01:12:14.097Z,8.61
2022-11-20T01:13:14.079Z,8.43
2022-11-20T01:14:14.068Z,8.40
2022-11-20T01:15:14.056Z,8.37
2022-11-20T01:16:14.044Z,8.36
2022-11-20T01:17:14.022Z,8.36
2022-11-20T01:18:14.025Z,8.28
2022-11-20T01:19:17.730Z,8.32
2022-11-20T01:20:13.983Z,8.31
2022-11-20T01:21:13.961Z,8.29
2022-11-20T01:22:13.950Z,8.21
2022-11-20T01:23:13.932Z,8.25
2022-11-20T01:24:13.921Z,8.25
2022-11-20T01:25:13.903Z,8.24
2022-11-20T01:26:13.889Z,8.24
2022-11-20T01:27:13.873Z,8.10
2022-11-20T01:28:13.861Z,8.21
2022-11-20T01:29:13.843Z,8.13
2022-11-20T01:30:13.835Z,8.12
2022-11-20T01:31:13.813Z,8.12
2022-11-20T01:32:13.802Z,8.22
2022-11-20T01:33:13.784Z,8.24
2022-11-20T01:34:13.771Z,8.25
2022-11-20T01:35:13.759Z,8.31
2022-11-20T01:36:13.743Z,8.32
2022-11-20T01:37:13.726Z,8.28
2022-11-20T01:38:13.716Z,8.24
2022-11-20T01:39:13.696Z,8.21
2022-11-20T01:40:13.684Z,8.10
2022-11-20T01:41:13.666Z,8.04
2022-11-20T01:42:13.665Z,8.07
2022-11-20T01:43:13.637Z,8.06
2022-11-20T01:44:13.625Z,8.07
2022-11-20T01:45:13.608Z,8.06
2022-11-20T01:46:13.600Z,8.06
2022-11-20T01:47:13.578Z,8.09
2022-11-20T01:48:13.567Z,8.10
2022-11-20T01:49:13.550Z,7.99
2022-11-20T01:50:13.537Z,8.00
2022-11-20T01:51:13.520Z,8.00
2022-11-20T01:52:13.508Z,7.95
2022-11-20T01:53:13.491Z,8.06
2022-11-20T01:54:13.494Z,8.10
2022-11-20T01:55:13.460Z,8.09
2022-11-20T01:56:13.453Z,8.02
2022-11-20T01:57:13.430Z,8.17
2022-11-20T01:58:13.420Z,8.10
2022-11-20T01:59:13.452Z,8.12
2022-11-20T02:00:13.387Z,8.12
2022-11-20T02:01:13.442Z,8.22
2022-11-20T02:02:13.357Z,8.13
2022-11-20T02:03:13.395Z,8.09
2022-11-20T02:04:13.327Z,8.09
2022-11-20T02:05:13.317Z,8.17
2022-11-20T02:06:13.298Z,8.06
2022-11-20T02:07:13.341Z,8.06
2022-11-20T02:08:13.269Z,7.96
2022-11-20T02:09:13.258Z,7.96
2022-11-20T02:10:13.238Z,7.96
2022-11-20T02:11:13.242Z,7.96
2022-11-20T02:12:13.212Z,7.99
2022-11-20T02:13:13.198Z,7.96
2022-11-20T02:14:13.184Z,8.02
2022-11-20T02:15:13.168Z,8.07
2022-11-20T02:16:13.150Z,7.95
2022-11-20T02:17:13.140Z,8.06
2022-11-20T02:18:13.121Z,8.06
2022-11-20T02:19:13.112Z,8.00
2022-11-20T02:20:13.091Z,7.92
2022-11-20T02:21:13.082Z,7.95
2022-11-20T02:22:13.061Z,7.92
2022-11-20T02:23:13.055Z,7.96
2022-11-20T02:24:13.031Z,7.96
2022-11-20T02:25:13.021Z,7.95
2022-11-20T02:26:13.008Z,8.06
2022-11-20T02:27:12.991Z,7.99
2022-11-20T02:28:12.977Z,7.94
2022-11-20T02:29:12.962Z,8.00
2022-11-20T02:30:12.943Z,8.10
2022-11-20T02:31:12.931Z,8.10
2022-11-20T02:32:12.912Z,8.07
2022-11-20T02:33:12.901Z,7.96
2022-11-20T02:34:12.886Z,7.94
2022-11-20T02:35:12.872Z,7.95
2022-11-20T02:36:12.856Z,8.04
2022-11-20T02:37:12.843Z,8.04
2022-11-20T02:38:12.823Z,7.92
2022-11-20T02:39:12.812Z,8.09
2022-11-20T02:40:12.796Z,7.92
2022-11-20T02:41:12.799Z,7.94
2022-11-20T02:42:12.766Z,8.10
2022-11-20T02:43:12.753Z,8.04
2022-11-20T02:44:12.735Z,8.09
2022-11-20T02:45:12.725Z,8.10
2022-11-20T02:46:12.709Z,8.12
2022-11-20T02:47:12.693Z,7.96
2022-11-20T02:48:12.688Z,7.94
2022-11-20T02:49:12.664Z,8.00
2022-11-20T02:50:12.648Z,7.95
2022-11-20T02:51:12.634Z,8.00
2022-11-20T02:52:12.617Z,7.92
2022-11-20T02:53:12.604Z,7.92
2022-11-20T02:54:12.586Z,7.95
2022-11-20T02:55:12.577Z,7.88
2022-11-20T02:56:12.558Z,7.88
2022-11-20T02:57:12.549Z,7.92
2022-11-20T02:58:12.527Z,7.77
2022-11-20T02:59:12.516Z,7.92
2022-11-20T03:00:12.500Z,7.99
2022-11-20T03:01:12.561Z,7.92
2022-11-20T03:02:12.467Z,7.92
2022-11-20T03:03:12.506Z,7.91
2022-11-20T03:04:12.489Z,7.82
2022-11-20T03:05:12.427Z,7.71
2022-11-20T03:06:12.408Z,7.77
2022-11-20T03:07:12.465Z,7.71
2022-11-20T03:08:12.378Z,7.62
2022-11-20T03:09:12.366Z,7.60
2022-11-20T03:10:12.349Z,7.60
2022-11-20T03:11:12.337Z,7.62
2022-11-20T03:12:12.319Z,7.55
2022-11-20T03:13:12.308Z,7.55
2022-11-20T03:14:12.288Z,7.67
2022-11-20T03:15:12.277Z,7.62
2022-11-20T03:16:12.259Z,7.54
2022-11-20T03:17:12.247Z,7.54
2022-11-20T03:18:12.229Z,7.52
2022-11-20T03:19:12.217Z,7.44
2022-11-20T03:20:12.200Z,7.54
2022-11-20T03:21:12.189Z,7.54
2022-11-20T03:22:12.170Z,7.50
2022-11-20T03:23:12.158Z,7.54
2022-11-20T03:24:12.139Z,7.44
2022-11-20T03:25:12.131Z,7.45
2022-11-20T03:26:12.110Z,7.54
2022-11-20T03:27:12.098Z,7.57
2022-11-20T03:28:12.079Z,7.55
2022-11-20T03:29:12.067Z,7.58
2022-11-20T03:30:12.050Z,7.63
2022-11-20T03:31:12.037Z,7.67
2022-11-20T03:32:12.019Z,7.66
2022-11-20T03:33:12.008Z,7.71
2022-11-20T03:34:11.996Z,7.67
2022-11-20T03:35:11.979Z,7.54
2022-11-20T03:36:11.970Z,7.63
2022-11-20T03:37:11.948Z,7.70
2022-11-20T03:38:11.931Z,7.69
2022-11-20T03:39:11.919Z,7.76
2022-11-20T03:40:11.899Z,7.71
2022-11-20T03:41:11.890Z,7.71
2022-11-20T03:42:11.868Z,7.67
2022-11-20T03:43:11.858Z,7.63
2022-11-20T03:44:11.840Z,7.70
2022-11-20T03:45:11.828Z,7.70
2022-11-20T03:46:11.809Z,7.69
2022-11-20T03:47:11.797Z,7.69
2022-11-20T03:48:11.780Z,7.66
2022-11-20T03:49:11.767Z,7.62
2022-11-20T03:50:11.753Z,7.70
2022-11-20T03:51:11.737Z,7.66
2022-11-20T03:52:11.720Z,7.66
2022-11-20T03:53:11.706Z,7.71
2022-11-20T03:54:11.687Z,7.67
2022-11-20T03:55:11.679Z,7.82
2022-11-20T03:56:11.658Z,7.74
2022-11-20T03:57:11.648Z,7.77
2022-11-20T03:58:11.629Z,7.69
2022-11-20T03:59:11.620Z,7.79
2022-11-20T04:00:11.597Z,7.84
2022-11-20T04:01:11.588Z,7.79
2022-11-20T04:02:11.603Z,7.79
2022-11-20T04:03:11.557Z,7.79
2022-11-20T04:04:11.538Z,7.89
2022-11-20T04:05:11.529Z,7.76
2022-11-20T04:06:11.508Z,7.82
2022-11-20T04:07:11.578Z,7.77
2022-11-20T04:08:11.478Z,7.67
2022-11-20T04:09:11.515Z,7.63
2022-11-20T04:10:11.447Z,7.62
2022-11-20T04:11:11.436Z,7.62
2022-11-20T04:12:11.417Z,7.55
2022-11-20T04:13:11.407Z,7.52
2022-11-20T04:14:11.400Z,7.55
2022-11-20T04:15:11.376Z,7.42
2022-11-20T04:16:11.372Z,7.34
2022-11-20T04:17:11.346Z,7.27
2022-11-20T04:18:11.377Z,7.29
2022-11-20T04:19:11.315Z,7.26
2022-11-20T04:20:11.296Z,7.16
2022-11-20T04:21:11.284Z,7.18
2022-11-20T04:22:11.272Z,7.15
2022-11-20T04:23:11.255Z,7.12
2022-11-20T04:24:11.237Z,7.07
2022-11-20T04:25:11.225Z,6.99
2022-11-20T04:26:11.210Z,7.04
2022-11-20T04:27:11.194Z,7.00
2022-11-20T04:28:11.175Z,6.99
2022-11-20T04:29:11.167Z,7.01
2022-11-20T04:30:11.146Z,6.91
2022-11-20T04:31:11.133Z,6.79
2022-11-20T04:32:11.115Z,6.76
2022-11-20T04:33:11.103Z,6.90
2022-11-20T04:34:11.086Z,6.89
2022-11-20T04:35:11.072Z,6.75
2022-11-20T04:36:11.055Z,6.82
2022-11-20T04:37:11.041Z,6.64
2022-11-20T04:38:11.023Z,6.69
2022-11-20T04:39:11.011Z,6.68
2022-11-20T04:40:10.995Z,6.63
2022-11-20T04:41:10.981Z,6.71
2022-11-20T04:42:10.961Z,6.60
2022-11-20T04:43:10.950Z,6.57
2022-11-20T04:44:10.931Z,6.60
2022-11-20T04:45:10.919Z,6.64
2022-11-20T04:46:10.900Z,6.60
2022-11-20T04:47:10.887Z,6.69
2022-11-20T04:48:10.871Z,6.68
2022-11-20T04:49:10.859Z,6.58
2022-11-20T04:50:10.897Z,6.61
2022-11-20T04:51:10.831Z,6.64
2022-11-20T04:52:10.810Z,6.71
2022-11-20T04:53:10.795Z,6.64
2022-11-20T04:54:10.780Z,6.64
2022-11-20T04:55:10.763Z,6.54
2022-11-20T04:56:10.745Z,6.45
2022-11-20T04:57:14.437Z,6.38
2022-11-20T04:58:10.712Z,6.28
2022-11-20T04:59:10.701Z,6.35
2022-11-20T05:00:10.686Z,6.40
2022-11-20T05:01:10.764Z,6.30
2022-11-20T05:02:10.653Z,6.20
2022-11-20T05:03:10.640Z,6.28
2022-11-20T05:04:10.620Z,6.28
2022-11-20T05:05:10.609Z,6.32
2022-11-20T05:06:10.691Z,6.28
2022-11-20T05:07:10.665Z,6.30
2022-11-20T05:08:10.558Z,6.36
2022-11-20T05:09:10.546Z,6.30
2022-11-20T05:10:10.528Z,6.30
2022-11-20T05:11:10.515Z,6.24
2022-11-20T05:12:10.497Z,6.19
2022-11-20T05:13:10.533Z,6.27
2022-11-20T05:14:10.464Z,6.38
2022-11-20T05:15:10.452Z,6.33
2022-11-20T05:16:10.440Z,6.35
2022-11-20T05:17:10.421Z,6.36
2022-11-20T05:18:10.402Z,6.30
2022-11-20T05:19:10.394Z,6.35
2022-11-20T05:20:10.372Z,6.42
2022-11-20T05:21:10.360Z,6.45
2022-11-20T05:22:10.439Z,6.55
2022-11-20T05:23:10.332Z,6.50
2022-11-20T05:24:10.309Z,6.57
2022-11-20T05:25:10.296Z,6.55
2022-11-20T05:26:10.278Z,6.45
2022-11-20T05:27:10.265Z,6.60
2022-11-20T05:28:10.250Z,6.64
2022-11-20T05:29:10.233Z,6.68
2022-11-20T05:30:10.215Z,6.71
2022-11-20T05:31:10.201Z,6.68
2022-11-20T05:32:10.182Z,6.86
2022-11-20T05:33:10.172Z,6.90
2022-11-20T05:34:10.151Z,6.83
2022-11-20T05:35:10.140Z,6.89
2022-11-20T05:36:10.121Z,6.83
2022-11-20T05:37:10.109Z,6.72
2022-11-20T05:38:10.092Z,6.79
2022-11-20T05:39:10.077Z,6.82
2022-11-20T05:40:10.060Z,6.79
2022-11-20T05:41:10.061Z,6.81
2022-11-20T05:42:10.028Z,6.90
2022-11-20T05:43:10.019Z,6.96
2022-11-20T05:44:09.997Z,6.96
2022-11-20T05:45:09.984Z,7.15
2022-11-20T05:46:09.964Z,7.11
2022-11-20T05:47:09.952Z,7.04
2022-11-20T05:48:09.938Z,7.14
2022-11-20T05:49:09.921Z,7.21
2022-11-20T05:50:09.904Z,7.30
2022-11-20T05:51:09.892Z,7.18
2022-11-20T05:52:09.874Z,7.36
2022-11-20T05:53:09.859Z,7.58
2022-11-20T05:54:09.841Z,7.37
2022-11-20T05:55:09.828Z,7.79
2022-11-20T05:56:09.811Z,7.81
2022-11-20T05:57:09.798Z,7.92
2022-11-20T05:58:09.779Z,7.79
2022-11-20T05:59:09.767Z,7.79
2022-11-20T06:00:09.748Z,7.69
2022-11-20T06:01:09.736Z,7.67
2022-11-20T06:02:09.730Z,7.69
2022-11-20T06:03:09.704Z,7.58
2022-11-20T06:04:09.690Z,7.48
2022-11-20T06:05:09.682Z,7.52
2022-11-20T06:06:09.655Z,7.44
2022-11-20T06:07:09.695Z,7.44
2022-11-20T06:08:09.625Z,7.39
2022-11-20T06:09:09.713Z,7.44
2022-11-20T06:10:09.646Z,7.30
2022-11-20T06:11:09.581Z,7.34
2022-11-20T06:12:09.564Z,7.37
2022-11-20T06:13:09.552Z,7.23
2022-11-20T06:14:09.533Z,7.24
2022-11-20T06:15:09.520Z,7.16
2022-11-20T06:16:09.506Z,7.14
2022-11-20T06:17:09.488Z,7.18
2022-11-20T06:18:09.476Z,7.16
2022-11-20T06:19:09.458Z,7.16
2022-11-20T06:20:09.444Z,7.08
2022-11-20T06:21:09.427Z,7.23
2022-11-20T06:22:09.427Z,7.14
2022-11-20T06:23:09.394Z,7.24
2022-11-20T06:24:09.382Z,7.12
2022-11-20T06:25:09.363Z,7.09
2022-11-20T06:26:09.352Z,7.08
2022-11-20T06:27:09.333Z,7.12
2022-11-20T06:28:09.322Z,7.12
2022-11-20T06:29:09.305Z,7.08
2022-11-20T06:30:09.297Z,7.09
2022-11-20T06:31:09.274Z,7.07
2022-11-20T06:32:09.260Z,7.00
2022-11-20T06:33:09.244Z,7.00
2022-11-20T06:34:09.230Z,7.08
2022-11-20T06:35:09.214Z,7.19
2022-11-20T06:36:11.026Z,7.36
2022-11-20T06:37:09.182Z,7.33
2022-11-20T06:38:09.167Z,7.37
2022-11-20T06:39:09.149Z,7.21
2022-11-20T06:40:09.158Z,7.19
2022-11-20T06:41:09.119Z,7.18
2022-11-20T06:42:09.106Z,7.19
2022-11-20T06:43:09.089Z,7.19
2022-11-20T06:44:09.076Z,7.23
2022-11-20T06:45:09.061Z,7.15
2022-11-20T06:46:09.045Z,7.14
2022-11-20T06:47:09.029Z,7.11
2022-11-20T06:48:09.016Z,7.16
2022-11-20T06:49:08.999Z,7.12
2022-11-20T06:50:08.984Z,7.08
2022-11-20T06:51:08.971Z,7.05
2022-11-20T06:52:08.969Z,7.14
2022-11-20T06:54:08.941Z,7.19
2022-11-20T06:55:08.908Z,7.21
2022-11-20T06:56:08.897Z,7.15
2022-11-20T06:57:08.879Z,7.19
2022-11-20T06:58:08.859Z,7.16
2022-11-20T06:59:08.850Z,7.15
2022-11-20T07:00:08.831Z,7.15
2022-11-20T07:01:08.866Z,7.14
2022-11-20T07:02:08.798Z,7.19
2022-11-20T07:03:08.786Z,7.16
2022-11-20T07:04:08.768Z,7.19
2022-11-20T07:05:08.756Z,7.39
2022-11-20T07:06:08.736Z,7.42
2022-11-20T07:07:08.821Z,7.33
2022-11-20T07:08:08.706Z,7.24
2022-11-20T07:09:22.041Z,7.44
2022-11-20T07:10:08.676Z,7.23
2022-11-20T07:11:08.668Z,7.34
2022-11-20T07:12:08.645Z,7.30
2022-11-20T07:13:08.633Z,7.36
2022-11-20T07:14:08.614Z,7.32
2022-11-20T07:15:08.602Z,7.36
2022-11-20T07:16:08.598Z,7.33
2022-11-20T07:17:08.572Z,7.27
2022-11-20T07:18:08.553Z,7.42
2022-11-20T07:19:08.540Z,7.36
2022-11-20T07:20:08.526Z,7.39
2022-11-20T07:21:08.511Z,7.34
2022-11-20T07:22:08.493Z,7.32
2022-11-20T07:23:08.480Z,7.44
2022-11-20T07:24:08.462Z,7.44
2022-11-20T07:25:08.450Z,7.41
2022-11-20T07:26:08.430Z,7.42
2022-11-20T07:27:08.418Z,7.42
2022-11-20T07:28:08.402Z,7.24
2022-11-20T07:29:08.389Z,7.37
2022-11-20T07:30:08.470Z,7.47
2022-11-20T07:31:08.373Z,7.44
2022-11-20T07:32:08.342Z,7.39
2022-11-20T07:33:08.327Z,7.42
2022-11-20T07:34:08.308Z,7.52
2022-11-20T07:35:08.298Z,7.42
2022-11-20T07:36:08.280Z,7.48
2022-11-20T07:37:10.510Z,7.42
2022-11-20T07:38:08.262Z,7.45
2022-11-20T07:39:08.240Z,7.34
2022-11-20T07:41:08.205Z,7.45
2022-11-20T07:42:08.192Z,7.54
2022-11-20T07:43:08.182Z,7.60
2022-11-20T07:44:08.163Z,7.73
2022-11-20T07:45:08.145Z,7.86
2022-11-20T07:46:08.133Z,7.76
2022-11-20T07:47:08.114Z,7.79
2022-11-20T07:48:08.102Z,8.00
2022-11-20T07:49:08.082Z,7.94
2022-11-20T07:50:08.070Z,7.86
2022-11-20T07:51:08.052Z,7.85
2022-11-20T07:52:08.042Z,7.95
2022-11-20T07:53:08.026Z,8.21
2022-11-20T07:54:08.011Z,8.14
2022-11-20T07:55:08.014Z,8.14
2022-11-20T07:56:07.981Z,8.06
2022-11-20T07:57:07.963Z,8.24
2022-11-20T07:58:08.049Z,8.21
2022-11-20T07:59:07.933Z,8.20
2022-11-20T08:00:07.920Z,8.27
2022-11-20T08:01:08.019Z,8.14
2022-11-20T08:02:07.891Z,8.28
2022-11-20T08:03:07.873Z,8.28
2022-11-20T08:04:07.861Z,8.43
2022-11-20T08:05:07.845Z,8.27
2022-11-20T08:06:07.833Z,8.27
2022-11-20T08:07:07.852Z,8.24
2022-11-20T08:08:07.803Z,8.27
2022-11-20T08:09:07.789Z,8.24
2022-11-20T08:10:07.784Z,8.24
2022-11-20T08:11:07.755Z,8.21
2022-11-20T08:12:07.742Z,8.25
2022-11-20T08:13:07.728Z,8.18
2022-11-20T08:14:07.711Z,8.14
2022-11-20T08:15:12.832Z,8.21
2022-11-20T08:16:07.688Z,8.14
2022-11-20T08:17:07.924Z,8.12
2022-11-20T08:18:30.114Z,8.21
2022-11-20T08:19:07.631Z,8.12
2022-11-20T08:20:07.623Z,8.28
2022-11-20T08:21:07.656Z,8.31
2022-11-20T08:22:07.591Z,8.32
2022-11-20T08:23:07.573Z,8.43
2022-11-20T08:24:07.564Z,8.61
2022-11-20T08:25:07.544Z,8.57
2022-11-20T08:26:07.532Z,8.63
2022-11-20T08:27:07.517Z,8.64
2022-11-20T08:28:18.387Z,8.67
2022-11-20T08:29:07.485Z,8.76
2022-11-20T08:30:07.472Z,8.86
2022-11-20T08:31:07.454Z,8.91
2022-11-20T08:32:07.443Z,8.96
2022-11-20T08:33:07.426Z,8.94
2022-11-20T08:34:09.417Z,9.13
2022-11-20T08:35:07.397Z,9.16
2022-11-20T08:36:07.384Z,9.26
2022-11-20T08:37:07.368Z,9.32
2022-11-20T08:38:07.352Z,9.31
2022-11-20T08:39:07.336Z,9.45
2022-11-20T08:40:07.326Z,9.62
2022-11-20T08:41:07.310Z,9.65
2022-11-20T08:42:07.296Z,9.60
2022-11-20T08:43:07.277Z,9.83
2022-11-20T08:44:07.270Z,9.86
2022-11-20T08:45:07.249Z,9.98
2022-11-20T08:46:07.238Z,10.02
2022-11-20T08:47:07.220Z,10.07
2022-11-20T08:48:07.211Z,10.17
2022-11-20T08:49:07.193Z,10.26
2022-11-20T08:50:07.180Z,10.25
2022-11-20T08:51:07.164Z,10.22
2022-11-20T08:52:07.160Z,10.26
2022-11-20T08:53:07.147Z,10.24
2022-11-20T08:54:07.125Z,10.25
2022-11-20T08:55:07.105Z,10.17
2022-11-20T08:56:07.097Z,10.18
2022-11-20T08:57:07.078Z,10.13
2022-11-20T08:58:07.066Z,10.07
2022-11-20T09:00:07.450Z,10.06
2022-11-20T09:01:07.071Z,10.20
2022-11-20T09:02:07.013Z,10.14
2022-11-20T09:03:06.994Z,10.20
2022-11-20T09:04:06.986Z,10.29
2022-11-20T09:05:06.967Z,10.28
2022-11-20T09:06:06.954Z,10.35
2022-11-20T09:07:07.022Z,10.39
2022-11-20T09:08:06.927Z,10.35
2022-11-20T09:09:07.238Z,10.44
2022-11-20T09:11:06.884Z,10.44
2022-11-20T09:12:06.870Z,10.42
2022-11-20T09:13:06.854Z,10.39
2022-11-20T09:14:06.860Z,10.42
2022-11-20T09:15:06.833Z,10.43
2022-11-20T09:16:06.827Z,10.31
2022-11-20T09:17:06.800Z,10.34
2022-11-20T09:18:06.788Z,10.36
2022-11-20T09:19:34.153Z,10.39
2022-11-20T09:20:06.760Z,10.44
2022-11-20T09:21:06.819Z,10.52
2022-11-20T09:22:06.738Z,10.51
2022-11-20T09:23:06.716Z,10.52
2022-11-20T09:24:06.706Z,10.55
2022-11-20T09:25:06.690Z,10.54
2022-11-20T09:26:06.678Z,10.54
2022-11-20T09:27:06.662Z,10.52
2022-11-20T09:28:06.657Z,10.36
2022-11-20T09:29:06.636Z,10.42
2022-11-20T09:30:06.624Z,10.38
2022-11-20T09:31:06.608Z,10.29
2022-11-20T09:32:06.598Z,10.28
2022-11-20T09:33:06.582Z,10.28
2022-11-20T09:34:06.570Z,10.25
2022-11-20T09:35:06.554Z,10.26
2022-11-20T09:36:06.545Z,10.22
2022-11-20T09:37:07.700Z,10.34
2022-11-20T09:38:06.520Z,10.28
2022-11-20T09:39:06.513Z,10.34
2022-11-20T09:40:06.489Z,10.28
2022-11-20T09:41:06.474Z,10.31
2022-11-20T09:42:06.460Z,10.31
2022-11-20T09:43:06.443Z,10.31
2022-11-20T09:44:06.434Z,10.24
2022-11-20T09:45:06.417Z,10.29
2022-11-20T09:46:06.406Z,10.26
2022-11-20T09:47:06.390Z,10.36
2022-11-20T09:48:06.380Z,10.35
2022-11-20T09:49:06.364Z,10.29
2022-11-20T09:50:06.363Z,10.44
2022-11-20T09:51:06.373Z,10.42
2022-11-20T09:52:06.325Z,10.55
2022-11-20T09:53:06.308Z,10.39
2022-11-20T09:54:06.301Z,10.49
2022-11-20T09:55:06.282Z,10.58
2022-11-20T09:56:06.270Z,10.55
2022-11-20T09:57:06.257Z,10.54
2022-11-20T09:58:06.244Z,10.52
2022-11-20T09:59:06.231Z,10.54
2022-11-20T10:00:06.219Z,10.51
2022-11-20T10:01:06.286Z,10.57
2022-11-20T10:02:06.188Z,10.49
2022-11-20T10:03:06.174Z,10.55
2022-11-20T10:04:06.168Z,10.57
2022-11-20T10:05:06.147Z,10.57
2022-11-20T10:07:33.672Z,10.42
2022-11-20T10:08:06.126Z,10.55
2022-11-20T10:09:06.096Z,10.47
2022-11-20T10:10:06.079Z,10.75
2022-11-20T10:11:06.068Z,10.65
2022-11-20T10:12:06.058Z,10.83
2022-11-20T10:13:06.042Z,10.86
2022-11-20T10:14:06.024Z,10.91
2022-11-20T10:15:06.018Z,11.06
2022-11-20T10:16:05.998Z,11.23
2022-11-20T10:17:05.988Z,11.16
2022-11-20T10:18:05.977Z,11.17
2022-11-20T10:19:05.965Z,11.23
2022-11-20T10:20:05.945Z,11.19
2022-11-20T10:21:05.934Z,11.23
2022-11-20T10:22:05.918Z,11.20
2022-11-20T10:23:05.908Z,11.21
2022-11-20T10:24:05.892Z,11.27
2022-11-20T10:25:05.881Z,11.26
2022-11-20T10:26:05.863Z,11.28
2022-11-20T10:27:05.855Z,11.38
2022-11-20T10:28:05.840Z,11.38
2022-11-20T10:29:08.845Z,11.45
2022-11-20T10:30:05.813Z,11.42
2022-11-20T10:31:05.802Z,11.35
2022-11-20T10:32:05.786Z,11.41
2022-11-20T10:33:05.777Z,11.36
2022-11-20T10:34:12.099Z,11.30
2022-11-20T10:35:05.748Z,11.35
2022-11-20T10:36:05.742Z,11.41
2022-11-20T10:37:05.722Z,11.46
2022-11-20T10:38:05.713Z,11.49
2022-11-20T10:39:05.695Z,11.45
2022-11-20T10:40:05.686Z,11.46
2022-11-20T10:41:05.669Z,11.57
2022-11-20T10:42:05.659Z,11.66
2022-11-20T10:43:05.745Z,11.57
2022-11-20T10:44:05.635Z,11.60
2022-11-20T10:45:06.781Z,11.56
2022-11-20T10:46:05.612Z,11.63
2022-11-20T10:47:05.591Z,11.60
2022-11-20T10:48:05.581Z,11.64
2022-11-20T10:49:05.571Z,11.67
2022-11-20T10:50:05.555Z,11.74
2022-11-20T10:51:05.542Z,11.82
2022-11-20T10:52:05.531Z,11.88
2022-11-20T10:53:05.518Z,11.82
2022-11-20T10:54:05.506Z,11.81
2022-11-20T10:55:05.489Z,11.88
2022-11-20T10:56:05.494Z,11.97
2022-11-20T10:57:05.464Z,11.90
2022-11-20T10:58:05.453Z,11.90
2022-11-20T10:59:05.437Z,11.87
2022-11-20T11:00:05.429Z,11.88
2022-11-20T11:01:05.451Z,11.85
2022-11-20T11:02:05.402Z,11.96
2022-11-20T11:03:05.387Z,11.85
2022-11-20T11:04:05.380Z,11.93
2022-11-20T11:05:08.108Z,11.82
2022-11-20T11:06:05.352Z,11.88
2022-11-20T11:07:05.521Z,11.94
2022-11-20T11:08:05.326Z,11.96
2022-11-20T11:09:05.310Z,11.98
2022-11-20T11:10:05.300Z,12.00
2022-11-20T11:11:05.285Z,11.98
2022-11-20T11:12:07.266Z,11.98
2022-11-20T11:13:05.262Z,11.97
2022-11-20T11:14:05.250Z,12.07
2022-11-20T11:15:05.236Z,11.97
2022-11-20T11:16:05.228Z,11.97
2022-11-20T11:17:05.211Z,12.08
2022-11-20T11:18:05.200Z,12.05
2022-11-20T11:19:05.209Z,11.88
2022-11-20T11:20:05.176Z,11.88
2022-11-20T11:21:05.162Z,11.90
2022-11-20T11:22:05.151Z,11.87
2022-11-20T11:23:05.185Z,11.88
2022-11-20T11:24:27.008Z,11.88
2022-11-20T11:25:05.110Z,11.85
2022-11-20T11:26:05.104Z,11.87
2022-11-20T11:27:05.086Z,11.88
2022-11-20T11:28:05.076Z,11.88
2022-11-20T11:29:05.060Z,11.85
2022-11-20T11:30:05.050Z,11.84
2022-11-20T11:31:05.038Z,11.88
2022-11-20T11:32:05.025Z,11.85
2022-11-20T11:33:05.010Z,11.81
2022-11-20T11:34:05.004Z,11.81
2022-11-20T11:35:04.987Z,11.82
2022-11-20T11:36:04.974Z,11.74
2022-11-20T11:37:04.960Z,11.74
2022-11-20T11:38:04.949Z,11.78
2022-11-20T11:39:04.933Z,11.82
2022-11-20T11:40:23.438Z,11.77
2022-11-20T11:41:04.907Z,11.77
2022-11-20T11:42:04.898Z,11.77
2022-11-20T11:43:04.933Z,11.78
2022-11-20T11:44:04.876Z,11.78
2022-11-20T11:45:04.857Z,11.85
2022-11-20T11:46:04.848Z,11.82
2022-11-20T11:47:04.832Z,11.82
2022-11-20T11:48:04.824Z,11.82
2022-11-20T11:49:04.808Z,11.81
2022-11-20T11:50:04.800Z,11.81
2022-11-20T11:51:04.782Z,11.81
2022-11-20T11:52:04.775Z,11.90
2022-11-20T11:53:04.758Z,11.85
2022-11-20T11:54:04.749Z,11.88
2022-11-20T11:55:10.079Z,11.84
2022-11-20T11:56:04.725Z,11.96
2022-11-20T11:57:04.705Z,11.98
2022-11-20T11:58:04.696Z,11.97
2022-11-20T11:59:04.680Z,11.88
2022-11-20T12:00:04.671Z,11.82
2022-11-20T12:01:04.656Z,11.85
2022-11-20T12:02:04.668Z,11.79
2022-11-20T12:03:04.645Z,11.79
2022-11-20T12:04:04.622Z,11.72
2022-11-20T12:05:04.605Z,11.81
2022-11-20T12:06:04.597Z,11.78
2022-11-20T12:07:18.529Z,11.69
2022-11-20T12:08:09.478Z,11.69
2022-11-20T12:09:04.555Z,11.72
2022-11-20T12:10:04.545Z,11.63
2022-11-20T12:11:04.531Z,11.67
2022-11-20T12:12:04.522Z,11.63
2022-11-20T12:13:04.506Z,11.59
2022-11-20T12:14:04.495Z,11.64
2022-11-20T12:15:04.479Z,11.72
2022-11-20T12:16:04.469Z,11.59
2022-11-20T12:17:04.458Z,11.49
2022-11-20T12:18:04.494Z,11.23
2022-11-20T12:19:04.429Z,11.19
2022-11-20T12:20:04.419Z,11.09
2022-11-20T12:21:04.403Z,10.95
2022-11-20T12:22:05.337Z,10.98
2022-11-20T12:23:04.380Z,11.09
2022-11-20T12:24:04.385Z,11.05
2022-11-20T12:25:04.351Z,10.84
2022-11-20T12:26:04.339Z,10.84
2022-11-20T12:27:04.325Z,10.90
2022-11-20T12:28:04.317Z,10.95
2022-11-20T12:29:04.317Z,10.88
2022-11-20T12:30:04.297Z,10.87
2022-11-20T12:31:04.273Z,10.88
2022-11-20T12:32:04.262Z,11.01
2022-11-20T12:33:04.247Z,11.01
2022-11-20T12:34:04.236Z,10.94
2022-11-20T12:35:10.030Z,10.95
2022-11-20T12:36:04.212Z,10.78
2022-11-20T12:37:04.197Z,10.83
2022-11-20T12:38:04.183Z,10.70
2022-11-20T12:39:04.168Z,10.69
2022-11-20T12:40:04.158Z,10.81
2022-11-20T12:41:04.140Z,10.76
2022-11-20T12:42:04.130Z,10.78
2022-11-20T12:43:04.116Z,10.78
2022-11-20T12:44:04.104Z,10.83
2022-11-20T12:45:04.087Z,10.78
2022-11-20T12:46:04.078Z,10.63
2022-11-20T12:47:04.060Z,10.72
2022-11-20T12:48:04.051Z,10.73
2022-11-20T12:49:04.038Z,10.86
2022-11-20T12:50:04.023Z,10.84
2022-11-20T12:51:19.497Z,10.87
2022-11-20T12:52:03.998Z,10.88
2022-11-20T12:53:03.983Z,10.88
2022-11-20T12:54:03.971Z,10.94
2022-11-20T12:55:03.956Z,10.88
2022-11-20T12:56:03.945Z,10.84
2022-11-20T12:57:04.328Z,10.90
2022-11-20T12:58:03.918Z,10.98
2022-11-20T12:59:03.901Z,10.98
2022-11-20T13:00:03.899Z,11.11
2022-11-20T13:01:04.006Z,11.09
2022-11-20T13:02:03.865Z,11.16
2022-11-20T13:03:03.848Z,11.17
2022-11-20T13:04:09.231Z,11.33
2022-11-20T13:05:03.822Z,11.38
2022-11-20T13:06:03.811Z,11.39
2022-11-20T13:07:03.879Z,11.48
2022-11-20T13:08:03.785Z,11.49
2022-11-20T13:09:03.768Z,11.60
2022-11-20T13:10:06.502Z,11.66
2022-11-20T13:11:03.747Z,11.60
2022-11-20T13:12:03.733Z,11.42
2022-11-20T13:13:03.718Z,11.46
2022-11-20T13:14:03.706Z,11.54